TimeCDT,TemperatureF,Dew PointF,Humidity,Sea Level PressureIn,VisibilityMPH,Wind Direction,Wind SpeedMPH,Gust SpeedMPH,PrecipitationIn,Events,Conditions,WindDirDegrees,DateUTC
12:52 AM,25.0,14.0,63,30.35,10.0,Calm,Calm,-,N/A,,Clear,0,2013-03-14 05:52:00
1:52 AM,24.1,15.1,69,30.35,10.0,West,3.5,-,N/A,,Clear,280,2013-03-14 06:52:00
2:52 AM,24.1,15.1,69,30.35,10.0,WSW,3.5,-,N/A,,Clear,250,2013-03-14 07:52:00
3:52 AM,23.0,15.1,72,30.34,10.0,Calm,Calm,-,N/A,,Clear,0,2013-03-14 08:52:00
4:52 AM,21.9,15.1,75,30.32,10.0,Calm,Calm,-,N/A,,Clear,0,2013-03-14 09:52:00
5:52 AM,21.9,15.1,75,30.32,10.0,Calm,Calm,-,N/A,,Clear,0,2013-03-14 10:52:00
6:52 AM,21.9,15.1,75,30.34,10.0,West,4.6,-,N/A,,Clear,260,2013-03-14 11:52:00
7:52 AM,23.0,16.0,74,30.34,10.0,Calm,Calm,-,N/A,,Clear,0,2013-03-14 12:52:00
8:52 AM,26.1,17.1,69,30.34,10.0,Calm,Calm,-,N/A,,Scattered Clouds,0,2013-03-14 13:52:00
9:52 AM,28.9,16.0,58,30.32,10.0,Calm,Calm,-,N/A,,Scattered Clouds,0,2013-03-14 14:52:00
10:52 AM,32.0,16.0,52,30.31,10.0,Variable,5.8,-,N/A,,Mostly Cloudy,0,2013-03-14 15:52:00
11:52 AM,33.1,14.0,46,30.30,10.0,Variable,4.6,-,N/A,,Overcast,0,2013-03-14 16:52:00
12:52 PM,35.1,17.1,48,30.29,10.0,WNW,8.1,-,N/A,,Overcast,290,2013-03-14 17:52:00
1:52 PM,35.1,16.0,46,30.27,10.0,WSW,8.1,-,N/A,,Overcast,240,2013-03-14 18:52:00
2:52 PM,33.1,21.9,64,30.24,10.0,WSW,4.6,-,N/A,,Overcast,250,2013-03-14 19:52:00
3:52 PM,35.1,24.1,64,30.21,10.0,SW,8.1,-,N/A,,Mostly Cloudy,220,2013-03-14 20:52:00
4:52 PM,36.0,27.0,70,30.19,10.0,South,10.4,-,N/A,,Clear,190,2013-03-14 21:52:00
5:52 PM,36.0,27.0,70,30.23,10.0,SSW,5.8,-,N/A,,Overcast,200,2013-03-14 22:52:00
6:52 PM,35.1,27.0,72,30.20,9.0,SSW,6.9,-,N/A,,Overcast,210,2013-03-14 23:52:00
7:52 PM,33.1,27.0,78,30.20,8.0,WSW,5.8,-,N/A,,Mostly Cloudy,250,2013-03-15 00:52:00
8:52 PM,33.1,28.0,82,30.18,7.0,SSW,9.2,-,N/A,,Mostly Cloudy,210,2013-03-15 01:52:00
9:35 PM,32.0,28.4,87,30.13,6.0,SSW,5.8,-,N/A,,Scattered Clouds,200,2013-03-15 02:35:00
9:52 PM,32.0,28.9,88,30.15,6.0,SSW,6.9,-,N/A,,Clear,200,2013-03-15 02:52:00
10:52 PM,32.0,28.0,85,30.12,7.0,South,10.4,-,N/A,,Clear,190,2013-03-15 03:52:00
11:52 PM,32.0,28.0,85,30.12,8.0,SSW,4.6,-,N/A,,Clear,210,2013-03-15 04:52:00